Time;durP1;ratioP1;P1;durP2;ratioP2;P2;SDS_P1;SDS_P2;PMS_P1;PMS_P2;Temp;Humidity;BMP_temperature;BMP_pressure;BME280_temperature;BME280_humidity;BME280_pressure;Samples;Min_cycle;Max_cycle;Signal;HPM_P1;HPM_P2
2023/12/08 00:00:32;;;;;;;14.30;10.57;;;;;;;1.62;100.00;100759.53;5131596;27;20054;-35
2023/12/08 00:02:57;;;;;;;12.20;10.63;;;;;;;1.61;100.00;100769.38;5130648;27;20455;-36
2023/12/08 00:05:22;;;;;;;12.13;10.63;;;;;;;1.60;100.00;100757.03;5130678;27;20069;-36
2023/12/08 00:07:48;;;;;;;12.87;10.50;;;;;;;1.56;100.00;100745.03;5123508;27;20463;-36
2023/12/08 00:10:13;;;;;;;12.00;10.63;;;;;;;1.59;100.00;100750.03;5117204;28;20487;-36
2023/12/08 00:12:39;;;;;;;13.88;11.13;;;;;;;1.60;100.00;100756.19;5117186;28;20417;-35
2023/12/08 00:15:05;;;;;;;11.67;10.47;;;;;;;1.62;100.00;100744.38;5116669;28;20022;-35
2023/12/08 00:17:31;;;;;;;11.88;10.20;;;;;;;1.54;100.00;100747.91;5116465;28;20468;-35
2023/12/08 00:19:56;;;;;;;12.60;10.73;;;;;;;1.51;100.00;100732.28;5116967;28;20024;-36
2023/12/08 00:22:22;;;;;;;12.47;11.17;;;;;;;1.58;100.00;100740.38;5117277;28;20047;-35
2023/12/08 00:24:47;;;;;;;12.67;10.37;;;;;;;1.65;100.00;100748.50;5116546;28;20024;-36
2023/12/08 00:27:13;;;;;;;12.75;9.95;;;;;;;1.64;100.00;100747.69;5117391;28;20028;-36
2023/12/08 00:29:38;;;;;;;13.90;10.53;;;;;;;1.64;100.00;100742.34;5116177;28;20471;-36
2023/12/08 00:32:04;;;;;;;12.30;10.25;;;;;;;1.64;100.00;100742.34;5117026;28;20024;-36
2023/12/08 00:34:29;;;;;;;12.35;11.05;;;;;;;1.63;100.00;100740.69;5116301;28;20027;-36
2023/12/08 00:36:54;;;;;;;11.77;10.43;;;;;;;1.65;100.00;100740.50;5116604;28;20066;-35
2023/12/08 00:39:22;;;;;;;12.10;9.60;;;;;;;1.64;100.00;100731.69;5116687;28;20034;-36
2023/12/08 00:41:47;;;;;;;12.75;10.50;;;;;;;1.65;100.00;100729.84;5116238;28;20054;-36
2023/12/08 00:44:12;;;;;;;13.90;10.83;;;;;;;1.65;100.00;100725.34;5116288;28;20051;-36
2023/12/08 00:46:38;;;;;;;11.50;10.17;;;;;;;1.60;100.00;100719.72;5116497;27;20023;-35
2023/12/08 00:49:03;;;;;;;13.40;10.63;;;;;;;1.69;100.00;100721.31;5116945;28;20031;-36
2023/12/08 00:51:28;;;;;;;10.90;9.73;;;;;;;1.48;100.00;100695.31;5116335;28;20028;-36
2023/12/08 00:53:54;;;;;;;13.03;10.87;;;;;;;1.64;100.00;100720.19;5116546;28;20111;-36
2023/12/08 00:56:19;;;;;;;12.47;10.60;;;;;;;1.68;100.00;100722.34;5116223;28;20083;-35
2023/12/08 00:58:44;;;;;;;12.33;10.20;;;;;;;1.75;100.00;100722.47;5115985;28;20051;-35
2023/12/08 01:01:10;;;;;;;12.17;10.30;;;;;;;1.73;100.00;100708.47;5115949;28;20068;-36
2023/12/08 01:03:35;;;;;;;13.40;11.13;;;;;;;1.76;100.00;100726.81;5115828;28;20019;-36
2023/12/08 01:06:00;;;;;;;12.20;9.77;;;;;;;1.79;100.00;100710.44;5116319;28;20371;-35
2023/12/08 01:08:26;;;;;;;11.10;9.80;;;;;;;1.77;100.00;100705.28;5115745;28;20027;-36
2023/12/08 01:10:51;;;;;;;12.27;10.43;;;;;;;1.76;100.00;100708.97;5115762;28;20023;-36
2023/12/08 01:13:16;;;;;;;11.87;10.63;;;;;;;1.77;100.00;100707.13;5115587;28;20361;-35
2023/12/08 01:15:42;;;;;;;12.30;10.17;;;;;;;1.73;100.00;100693.31;5116085;28;20126;-36
2023/12/08 01:18:08;;;;;;;11.70;10.17;;;;;;;1.78;100.00;100698.13;5115459;28;20059;-36
2023/12/08 01:20:34;;;;;;;13.38;10.55;;;;;;;1.74;100.00;100694.13;5115314;28;20027;-35
2023/12/08 01:23:00;;;;;;;;;;;;;;;1.81;100.00;100687.09;5115846;28;20063;-35
2023/12/08 01:25:25;;;;;;;12.03;9.97;;;;;;;1.79;100.00;100689.09;5115145;28;19908;-36
2023/12/08 01:27:50;;;;;;;12.13;10.83;;;;;;;1.77;100.00;100697.28;5115689;28;20031;-35
2023/12/08 01:30:16;;;;;;;11.50;9.80;;;;;;;1.78;100.00;100693.63;5115854;27;20027;-35
2023/12/08 01:32:41;;;;;;;11.87;10.30;;;;;;;1.79;100.00;100697.94;5115510;28;20373;-35
2023/12/08 01:35:06;;;;;;;11.17;9.60;;;;;;;1.80;100.00;100693.44;5115703;28;20034;-35
2023/12/08 01:37:32;;;;;;;11.05;9.82;;;;;;;1.76;100.00;100687.63;5115678;28;20031;-35
2023/12/08 01:39:57;;;;;;;13.53;10.77;;;;;;;1.79;100.00;100684.59;5113912;28;20023;-36
2023/12/08 01:42:22;;;;;;;12.23;9.37;;;;;;;1.78;100.00;100671.47;5115135;28;20483;-36
2023/12/08 01:44:48;;;;;;;11.03;9.63;;;;;;;1.79;100.00;100670.44;5115087;28;20488;-36
2023/12/08 01:47:14;;;;;;;12.43;9.98;;;;;;;1.81;100.00;100671.13;5114750;28;20030;-35
2023/12/08 01:49:40;;;;;;;10.55;9.35;;;;;;;1.77;100.00;100673.28;5115181;28;20042;-36
2023/12/08 01:52:08;;;;;;;12.40;8.93;;;;;;;1.80;100.00;100672.91;5114938;28;20024;-36
2023/12/08 01:54:34;;;;;;;11.23;9.40;;;;;;;1.79;100.00;100665.94;5115032;28;20340;-36
2023/12/08 01:57:01;;;;;;;11.23;9.70;;;;;;;1.77;100.00;100667.97;5115184;28;20061;-36
2023/12/08 01:59:26;;;;;;;11.50;10.05;;;;;;;1.80;100.00;100662.25;5114431;28;20110;-35
2023/12/08 02:01:51;;;;;;;11.98;10.02;;;;;;;1.73;100.00;100640.00;5115003;28;20103;-36
2023/12/08 02:04:17;;;;;;;10.33;8.60;;;;;;;1.78;100.00;100652.78;5114640;28;20035;-36
2023/12/08 02:06:42;;;;;;;11.23;10.03;;;;;;;1.82;100.00;100655.94;5115472;28;20107;-36
2023/12/08 02:09:08;;;;;;;10.60;9.50;;;;;;;1.84;100.00;100652.06;5115307;27;20273;-36
2023/12/08 02:11:34;;;;;;;11.97;9.87;;;;;;;1.82;100.00;100650.59;5114465;28;20042;-36
2023/12/08 02:14:01;;;;;;;10.48;9.38;;;;;;;1.78;100.00;100640.28;5114392;27;20031;-36
2023/12/08 02:16:48;;;;;;;;;;;;;;;1.86;100.00;100635.91;5115359;28;20028;-36
2023/12/08 02:19:16;;;;;;;12.23;10.10;;;;;;;1.78;100.00;100626.97;5114476;28;19934;-36
2023/12/08 02:21:42;;;;;;;13.65;9.90;;;;;;;1.79;100.00;100628.59;5114322;28;20032;-36
2023/12/08 02:24:08;;;;;;;11.95;9.82;;;;;;;1.83;100.00;100628.25;5114278;28;20097;-36
2023/12/08 02:26:34;;;;;;;10.35;9.20;;;;;;;1.83;100.00;100618.41;5114271;28;20467;-36
2023/12/08 02:28:59;;;;;;;11.30;9.60;;;;;;;1.72;100.00;100611.69;5114741;28;20019;-36
2023/12/08 02:31:32;;;;;;;12.03;9.60;;;;;;;1.75;100.00;100605.97;5114020;28;20143;-36
2023/12/08 02:34:00;;;;;;;11.10;9.77;;;;;;;1.79;100.00;100606.47;5113979;28;20059;-36
2023/12/08 02:36:25;;;;;;;11.25;9.18;;;;;;;1.76;100.00;100614.81;5114364;28;20023;-36
2023/12/08 02:38:52;;;;;;;12.27;10.43;;;;;;;1.78;100.00;100608.28;5114139;28;20054;-36
2023/12/08 02:41:18;;;;;;;13.43;10.48;;;;;;;1.80;100.00;100608.09;5114110;28;20074;-36
2023/12/08 02:43:43;;;;;;;15.18;10.95;;;;;;;1.78;100.00;100600.28;5113802;28;20024;-36
2023/12/08 02:46:09;;;;;;;11.53;9.50;;;;;;;1.79;100.00;100604.63;5114395;28;20039;-36
2023/12/08 02:48:34;;;;;;;11.57;9.47;;;;;;;1.75;100.00;100600.66;5114472;28;20039;-36
2023/12/08 02:50:59;;;;;;;11.57;10.37;;;;;;;1.74;100.00;100614.16;5114086;28;20487;-36
2023/12/08 02:53:25;;;;;;;12.17;9.70;;;;;;;1.75;100.00;100610.47;5114724;28;20077;-36
2023/12/08 02:55:50;;;;;;;12.47;10.30;;;;;;;1.75;100.00;100605.97;5113657;28;20019;-36
2023/12/08 02:58:15;;;;;;;13.97;11.07;;;;;;;1.69;100.00;100603.22;5113867;28;20024;-36
2023/12/08 03:00:41;;;;;;;11.90;10.13;;;;;;;1.64;100.00;100601.06;5113642;28;20291;-36
2023/12/08 03:03:06;;;;;;;13.10;10.73;;;;;;;1.68;100.00;100610.38;5113903;28;20024;-36
2023/12/08 03:05:32;;;;;;;12.55;10.80;;;;;;;1.67;100.00;100614.06;5114429;28;20039;-36
2023/12/08 03:07:57;;;;;;;12.27;10.17;;;;;;;1.65;100.00;100610.72;5113838;28;20034;-36
2023/12/08 03:10:22;;;;;;;13.30;11.27;;;;;;;1.65;100.00;100610.72;5114092;28;20020;-36
2023/12/08 03:12:47;;;;;;;12.60;10.07;;;;;;;1.72;100.00;100610.84;5114594;28;20028;-36
2023/12/08 03:15:13;;;;;;;12.83;10.37;;;;;;;1.71;100.00;100615.38;5113430;28;20031;-36
2023/12/08 03:17:38;;;;;;;10.83;9.73;;;;;;;1.68;100.00;100615.72;5114125;28;20027;-36
2023/12/08 03:20:04;;;;;;;13.00;11.63;;;;;;;1.67;100.00;100602.56;5113758;28;20028;-36
2023/12/08 03:22:29;;;;;;;12.70;11.35;;;;;;;1.60;100.00;100597.09;5114286;28;20032;-36
2023/12/08 03:24:55;;;;;;;14.30;11.23;;;;;;;1.71;100.00;100622.53;5113745;28;20122;-36
2023/12/08 03:27:20;;;;;;;11.53;10.07;;;;;;;1.68;100.00;100607.72;5114261;28;20063;-36
2023/12/08 03:29:46;;;;;;;12.53;11.00;;;;;;;1.71;100.00;100619.88;5113715;28;20111;-36
2023/12/08 03:32:11;;;;;;;11.10;10.00;;;;;;;1.59;100.00;100584.78;5113652;28;20479;-36
2023/12/08 03:34:37;;;;;;;12.00;10.63;;;;;;;1.72;100.00;100585.03;5113864;28;20274;-36
2023/12/08 03:37:02;;;;;;;13.60;11.10;;;;;;;1.72;100.00;100586.88;5113743;28;20027;-36
2023/12/08 03:39:28;;;;;;;12.33;10.17;;;;;;;1.69;100.00;100585.38;5113574;28;20030;-36
2023/12/08 03:41:53;;;;;;;14.33;11.70;;;;;;;1.72;100.00;100592.19;5113839;28;20055;-36
2023/12/08 03:44:18;;;;;;;12.93;11.13;;;;;;;1.71;100.00;100583.38;5117066;28;20034;-36
2023/12/08 03:46:44;;;;;;;12.07;10.73;;;;;;;1.72;100.00;100584.19;5117471;28;20144;-37
2023/12/08 03:49:10;;;;;;;11.88;10.60;;;;;;;1.73;100.00;100586.69;5117597;28;20116;-36
2023/12/08 03:51:35;;;;;;;13.23;11.38;;;;;;;1.70;100.00;100581.69;5117012;27;20379;-36
2023/12/08 03:54:00;;;;;;;14.17;10.93;;;;;;;1.65;100.00;100575.25;5117207;28;20024;-36
2023/12/08 03:56:26;;;;;;;11.33;10.03;;;;;;;1.71;100.00;100575.38;5117465;28;20048;-36
2023/12/08 03:58:51;;;;;;;14.90;11.73;;;;;;;1.69;100.00;100572.03;5117224;28;20725;-36
2023/12/08 04:01:17;;;;;;;14.30;12.23;;;;;;;1.71;100.00;100578.03;5117368;28;20428;-37
2023/12/08 04:03:43;;;;;;;12.80;10.88;;;;;;;1.72;100.00;100582.34;5117316;28;20273;-36
2023/12/08 04:06:08;;;;;;;12.65;11.35;;;;;;;1.76;100.00;100569.50;5117011;28;20031;-36
2023/12/08 04:08:33;;;;;;;12.40;11.10;;;;;;;1.74;100.00;100575.00;5116920;28;20024;-36
2023/12/08 04:10:59;;;;;;;12.80;11.40;;;;;;;1.78;100.00;100567.47;5117033;28;20353;-36
2023/12/08 04:13:24;;;;;;;13.03;11.47;;;;;;;1.73;100.00;100561.84;5117353;27;20035;-36
2023/12/08 04:15:50;;;;;;;14.57;12.03;;;;;;;1.75;100.00;100560.66;5116482;28;20111;-36
2023/12/08 04:18:15;;;;;;;12.15;10.95;;;;;;;1.76;100.00;100565.00;5116641;28;20054;-36
2023/12/08 04:20:40;;;;;;;12.90;11.27;;;;;;;1.73;100.00;100564.53;5116741;28;20028;-36
2023/12/08 04:23:06;;;;;;;13.63;11.00;;;;;;;1.75;100.00;100555.31;5117204;28;20073;-36
2023/12/08 04:25:32;;;;;;;12.73;11.43;;;;;;;1.72;100.00;100553.03;5116996;28;20486;-36
2023/12/08 04:27:57;;;;;;;14.07;10.57;;;;;;;1.74;100.00;100556.34;5116536;28;20065;-36
2023/12/08 04:30:22;;;;;;;12.77;11.43;;;;;;;1.74;100.00;100540.34;5116911;28;20038;-36
2023/12/08 04:32:48;;;;;;;13.83;11.37;;;;;;;1.74;100.00;100577.66;5116510;28;20027;-36
2023/12/08 04:35:13;;;;;;;13.17;11.33;;;;;;;1.70;100.00;100560.38;5116365;28;20031;-36
2023/12/08 04:37:38;;;;;;;11.90;10.63;;;;;;;1.69;100.00;100550.72;5116406;28;20088;-36
2023/12/08 04:40:04;;;;;;;15.83;11.90;;;;;;;1.76;100.00;100569.50;5116069;28;20024;-36
2023/12/08 04:42:29;;;;;;;12.13;10.82;;;;;;;1.75;100.00;100579.31;5116258;28;20023;-36
2023/12/08 04:44:55;;;;;;;14.77;11.17;;;;;;;1.80;100.00;100574.28;5116276;28;20031;-36
2023/12/08 04:47:20;;;;;;;12.00;10.80;;;;;;;1.78;100.00;100546.97;5116835;28;20430;-36
2023/12/08 04:49:45;;;;;;;12.57;11.17;;;;;;;1.71;100.00;100535.41;5116532;28;20096;-36
2023/12/08 04:52:11;;;;;;;12.43;10.90;;;;;;;1.80;100.00;100558.28;5116525;28;20425;-36
2023/12/08 04:54:36;;;;;;;12.13;10.93;;;;;;;1.79;100.00;100572.63;5115922;28;20592;-36
2023/12/08 04:57:02;;;;;;;12.70;10.53;;;;;;;1.80;100.00;100568.94;5116192;27;20055;-36
2023/12/08 04:59:27;;;;;;;13.38;11.05;;;;;;;1.79;100.00;100564.63;5115652;28;20066;-36
2023/12/08 05:01:53;;;;;;;12.37;11.00;;;;;;;1.83;100.00;100548.28;5116467;28;20401;-36
2023/12/08 05:04:19;;;;;;;12.30;10.53;;;;;;;1.86;100.00;100553.25;5115809;28;20269;-36
2023/12/08 05:06:45;;;;;;;13.00;11.15;;;;;;;1.76;100.00;100545.50;5115566;28;20467;-36
2023/12/08 05:09:11;;;;;;;11.50;10.27;;;;;;;1.65;100.00;100517.44;5115509;28;20062;-36
2023/12/08 05:11:36;;;;;;;14.13;11.57;;;;;;;1.79;100.00;100543.28;5115962;28;20391;-36
2023/12/08 05:14:02;;;;;;;11.80;10.55;;;;;;;1.76;100.00;100538.34;5115610;28;20119;-36
2023/12/08 05:16:28;;;;;;;12.95;11.13;;;;;;;1.85;100.00;100552.41;5116425;28;20115;-36
2023/12/08 05:18:53;;;;;;;13.02;10.90;;;;;;;1.88;100.00;100553.88;5115581;28;20483;-36
2023/12/08 05:21:19;;;;;;;12.00;10.33;;;;;;;1.90;100.00;100550.03;5115682;28;20057;-36
2023/12/08 05:23:44;;;;;;;13.77;11.70;;;;;;;1.83;100.00;100527.78;5115493;28;20047;-36
2023/12/08 05:26:09;;;;;;;12.20;10.73;;;;;;;1.93;100.00;100538.19;5115290;28;20372;-36
2023/12/08 05:28:35;;;;;;;12.43;11.10;;;;;;;1.90;100.00;100543.84;5115208;28;20387;-36
2023/12/08 05:31:00;;;;;;;11.03;9.90;;;;;;;1.92;100.00;100542.69;5115391;28;20171;-36
2023/12/08 05:33:25;;;;;;;12.80;9.87;;;;;;;1.91;100.00;100540.22;5114989;28;20028;-36
2023/12/08 05:35:51;;;;;;;14.87;11.73;;;;;;;1.83;100.00;100537.59;5115580;28;20039;-36
2023/12/08 05:38:16;;;;;;;11.67;10.47;;;;;;;1.93;100.00;100557.66;5114863;28;20034;-36
2023/12/08 05:40:42;;;;;;;11.67;10.47;;;;;;;1.96;100.00;100565.31;5115474;27;20161;-36
2023/12/08 05:43:07;;;;;;;12.23;10.93;;;;;;;1.87;100.00;100555.72;5115432;28;20487;-36
2023/12/08 05:45:32;;;;;;;11.30;10.03;;;;;;;1.96;100.00;100559.16;5115078;28;20262;-36
2023/12/08 05:47:58;;;;;;;11.50;10.30;;;;;;;1.94;100.00;100555.81;5114960;28;20072;-36
2023/12/08 05:50:23;;;;;;;13.37;10.43;;;;;;;1.97;100.00;100569.63;5115052;28;20467;-36
2023/12/08 05:52:48;;;;;;;11.87;10.67;;;;;;;1.91;100.00;100561.53;5115165;28;20106;-36
2023/12/08 05:55:14;;;;;;;13.50;11.33;;;;;;;1.98;100.00;100568.63;5113635;28;20468;-36
2023/12/08 05:57:39;;;;;;;12.87;10.57;;;;;;;2.03;100.00;100570.75;5115149;28;20471;-36
2023/12/08 06:00:06;;;;;;;11.75;10.35;;;;;;;2.04;100.00;100572.38;5115022;28;20024;-36
2023/12/08 06:02:31;;;;;;;11.73;9.73;;;;;;;2.00;100.00;100565.75;5114445;28;20505;-36
2023/12/08 06:04:57;;;;;;;12.63;10.93;;;;;;;2.05;100.00;100574.06;5114531;28;20110;-36
2023/12/08 06:07:22;;;;;;;12.20;10.70;;;;;;;1.92;100.00;100539.19;5114643;28;20492;-36
2023/12/08 06:09:47;;;;;;;13.23;10.93;;;;;;;2.08;100.00;100551.53;5114601;28;20046;-36
2023/12/08 06:12:13;;;;;;;11.63;9.93;;;;;;;2.04;100.00;100529.72;5114878;28;20027;-36
2023/12/08 06:14:38;;;;;;;12.37;11.00;;;;;;;2.11;100.00;100545.84;5114719;28;20444;-36
2023/12/08 06:17:04;;;;;;;12.77;11.47;;;;;;;2.08;100.00;100538.19;5114040;28;20030;-36
2023/12/08 06:19:30;;;;;;;11.73;10.43;;;;;;;2.13;100.00;100552.63;5113460;28;20081;-36
2023/12/08 06:21:56;;;;;;;11.80;9.95;;;;;;;2.18;100.00;100558.25;5114644;28;20100;-36
2023/12/08 06:24:21;;;;;;;13.37;11.07;;;;;;;2.18;100.00;100562.75;5114395;28;20485;-36
2023/12/08 06:26:47;;;;;;;13.03;10.73;;;;;;;2.18;100.00;100568.09;5114097;28;20163;-36
2023/12/08 06:29:12;;;;;;;11.47;10.27;;;;;;;2.21;100.00;100568.56;5114286;28;20135;-36
2023/12/08 06:31:37;;;;;;;13.07;10.33;;;;;;;2.24;100.00;100578.84;5114480;28;20376;-36
2023/12/08 06:34:03;;;;;;;11.90;10.67;;;;;;;2.23;100.00;100566.53;5114121;28;20046;-36
2023/12/08 06:36:28;;;;;;;13.63;10.33;;;;;;;2.26;100.00;100566.16;5114193;28;20035;-36
2023/12/08 06:38:53;;;;;;;15.00;11.67;;;;;;;2.25;100.00;100569.84;5113821;28;20030;-36
2023/12/08 06:41:20;;;;;;;13.63;11.43;;;;;;;2.29;100.00;100568.47;5115017;28;20107;-36
2023/12/08 06:43:45;;;;;;;14.27;11.10;;;;;;;2.26;100.00;100557.34;5114018;28;20028;-36
2023/12/08 06:46:11;;;;;;;12.65;11.07;;;;;;;2.29;100.00;100571.16;5114394;28;20122;-36
2023/12/08 06:48:36;;;;;;;12.33;10.43;;;;;;;2.35;100.00;100580.25;5113781;28;20040;-36
2023/12/08 06:51:03;;;;;;;14.13;10.73;;;;;;;2.33;100.00;100577.75;5114279;28;20031;-36
2023/12/08 06:53:29;;;;;;;13.10;11.70;;;;;;;2.31;100.00;100566.44;5113590;28;20074;-36
2023/12/08 06:55:54;;;;;;;12.48;11.13;;;;;;;2.35;100.00;100566.09;5113918;28;20055;-36
2023/12/08 06:58:19;;;;;;;14.67;11.30;;;;;;;2.44;100.00;100580.97;5113874;28;20035;-36
2023/12/08 07:00:44;;;;;;;14.80;11.37;;;;;;;2.45;100.00;100580.81;5113466;28;20023;-36
2023/12/08 07:03:10;;;;;;;15.50;11.93;;;;;;;2.48;100.00;100583.09;5113672;28;20055;-36
2023/12/08 07:05:35;;;;;;;17.13;11.80;;;;;;;2.49;100.00;100591.91;5113644;28;20023;-36
2023/12/08 07:08:00;;;;;;;14.33;10.90;;;;;;;2.50;100.00;100586.41;5113525;28;20028;-36
2023/12/08 07:10:26;;;;;;;16.17;12.43;;;;;;;2.53;100.00;100587.88;5114423;28;20024;-36
2023/12/08 07:12:51;;;;;;;18.57;11.33;;;;;;;2.51;100.00;100573.91;5113575;28;20028;-36
2023/12/08 07:15:16;;;;;;;20.50;13.10;;;;;;;2.57;100.00;100583.81;5114069;28;20036;-36
2023/12/08 07:17:42;;;;;;;17.53;12.77;;;;;;;2.54;100.00;100579.69;5114611;28;20160;-36
2023/12/08 07:20:09;;;;;;;16.77;12.40;;;;;;;2.58;100.00;100580.13;5117908;28;20141;-36
2023/12/08 07:22:35;;;;;;;14.82;11.27;;;;;;;2.55;100.00;100569.84;5118374;28;20063;-36
2023/12/08 07:25:01;;;;;;;;;;;;;;;2.62;100.00;100584.09;5118266;28;20027;-36
2023/12/08 07:27:26;;;;;;;18.23;12.07;;;;;;;2.54;100.00;100581.53;5117437;28;19959;-36
2023/12/08 07:29:52;;;;;;;17.13;11.30;;;;;;;2.64;100.00;100583.94;5117485;28;20023;-36
2023/12/08 07:32:17;;;;;;;15.40;12.27;;;;;;;2.65;100.00;100589.06;5117569;28;20036;-36
2023/12/08 07:34:42;;;;;;;17.40;12.43;;;;;;;2.66;100.00;100598.72;5117657;28;20038;-36
2023/12/08 07:37:08;;;;;;;19.23;12.97;;;;;;;2.58;100.00;100586.31;5117790;28;20020;-36
2023/12/08 07:39:33;;;;;;;17.27;13.23;;;;;;;2.60;100.00;100582.63;5118022;28;20027;-36
2023/12/08 07:41:58;;;;;;;17.53;12.53;;;;;;;2.58;100.00;100580.97;5117726;28;20031;-36
2023/12/08 07:44:24;;;;;;;18.33;13.33;;;;;;;2.70;100.00;100605.38;5116312;28;20123;-36
2023/12/08 07:46:49;;;;;;;20.63;14.20;;;;;;;2.70;100.00;100602.69;5117110;28;20498;-36
2023/12/08 07:49:15;;;;;;;21.03;14.57;;;;;;;2.72;100.00;100605.19;5117265;28;20062;-36
2023/12/08 07:51:40;;;;;;;16.73;12.47;;;;;;;2.75;100.00;100602.16;5117633;28;20035;-36
2023/12/08 07:54:05;;;;;;;16.27;13.80;;;;;;;2.74;100.00;100606.66;5117016;28;20023;-36
2023/12/08 07:56:31;;;;;;;18.33;13.10;;;;;;;2.74;100.00;100609.34;5117402;28;20054;-36
2023/12/08 07:58:56;;;;;;;16.63;13.37;;;;;;;2.71;100.00;100604.34;5117448;28;20077;-36
2023/12/08 08:01:21;;;;;;;19.27;14.30;;;;;;;2.78;100.00;100613.28;5117650;27;20028;-36
2023/12/08 08:03:47;;;;;;;25.10;15.80;;;;;;;2.79;100.00;100622.94;5117063;28;20102;-36
2023/12/08 08:06:13;;;;;;;21.83;14.65;;;;;;;2.76;100.00;100611.81;5116984;28;20051;-36
2023/12/08 08:08:38;;;;;;;21.63;15.13;;;;;;;2.83;100.00;100618.91;5116766;28;20038;-36
2023/12/08 08:11:04;;;;;;;21.77;14.27;;;;;;;2.86;100.00;100616.88;5117551;28;20035;-36
2023/12/08 08:13:29;;;;;;;19.23;14.35;;;;;;;2.87;100.00;100616.66;5116583;28;20028;-36
2023/12/08 08:15:54;;;;;;;20.03;14.33;;;;;;;2.91;100.00;100625.16;5117364;28;20024;-36
2023/12/08 08:18:20;;;;;;;22.27;14.90;;;;;;;2.84;100.00;100612.53;5116498;28;20487;-36
2023/12/08 08:20:45;;;;;;;24.17;15.40;;;;;;;2.93;100.00;100626.63;5117112;28;20114;-36
2023/12/08 08:23:10;;;;;;;22.10;14.87;;;;;;;2.97;100.00;100621.72;5116707;28;20047;-36
2023/12/08 08:25:35;;;;;;;20.27;15.00;;;;;;;2.91;100.00;100601.94;5116754;28;20027;-36
2023/12/08 08:28:01;;;;;;;22.97;15.77;;;;;;;2.92;100.00;100605.44;5116183;28;20027;-36
2023/12/08 08:30:26;;;;;;;28.73;17.67;;;;;;;3.01;100.00;100618.50;5116610;28;20031;-36
2023/12/08 08:32:52;;;;;;;27.80;17.98;;;;;;;3.04;100.00;100622.66;5116217;28;20062;-36
2023/12/08 08:35:18;;;;;;;28.60;17.80;;;;;;;2.94;100.00;100606.91;5116828;28;20520;-36
2023/12/08 08:37:43;;;;;;;30.75;17.58;;;;;;;3.05;100.00;100621.63;5116042;28;20035;-36
2023/12/08 08:40:09;;;;;;;29.37;18.20;;;;;;;3.07;100.00;100630.25;5116708;28;20023;-36
2023/12/08 08:42:36;;;;;;;34.05;18.98;;;;;;;3.10;100.00;100635.25;5116873;28;20371;-36
2023/12/08 08:45:02;;;;;;;27.15;19.63;;;;;;;3.14;100.00;100627.69;5115929;28;20032;-36
2023/12/08 08:47:28;;;;;;;31.25;19.17;;;;;;;3.14;100.00;100628.50;5116432;28;20459;-36
2023/12/08 08:49:53;;;;;;;31.30;20.33;;;;;;;3.17;100.00;100644.16;5116185;28;20032;-36
2023/12/08 08:52:19;;;;;;;32.00;20.07;;;;;;;3.20;100.00;100649.13;5116118;28;20039;-36
2023/12/08 08:54:46;;;;;;;35.58;20.55;;;;;;;3.21;100.00;100645.44;5115719;28;20269;-36
2023/12/08 08:57:11;;;;;;;31.80;20.83;;;;;;;3.24;100.00;100653.09;5116329;28;20068;-36
2023/12/08 08:59:37;;;;;;;30.70;21.30;;;;;;;3.27;100.00;100644.72;5116320;28;20038;-36
2023/12/08 09:02:02;;;;;;;35.43;22.03;;;;;;;3.30;100.00;100649.66;5116520;28;20409;-36
2023/12/08 09:04:27;;;;;;;37.85;22.13;;;;;;;3.19;100.00;100627.97;5115923;28;20023;-36
2023/12/08 09:06:53;;;;;;;36.33;21.90;;;;;;;3.35;100.00;100649.09;5116165;28;20031;-36
2023/12/08 09:09:18;;;;;;;34.17;21.38;;;;;;;3.38;100.00;100645.22;5115810;28;20027;-36
2023/12/08 09:11:44;;;;;;;36.63;22.17;;;;;;;3.42;100.00;100657.22;5116056;28;20038;-36
2023/12/08 09:14:09;;;;;;;38.47;23.20;;;;;;;3.45;100.00;100659.50;5115673;28;20023;-36
2023/12/08 09:16:35;;;;;;;33.67;21.50;;;;;;;3.48;100.00;100667.97;5115630;27;20085;-36
2023/12/08 09:19:00;;;;;;;33.38;21.23;;;;;;;3.49;100.00;100663.44;5115900;28;20034;-36
2023/12/08 09:21:25;;;;;;;37.43;20.33;;;;;;;3.51;100.00;100662.22;5115535;28;20031;-36
2023/12/08 09:23:51;;;;;;;32.03;20.67;;;;;;;3.54;100.00;100667.19;5115830;28;20023;-36
2023/12/08 09:26:16;;;;;;;38.97;21.60;;;;;;;3.58;100.00;100673.00;5115732;28;20507;-36
2023/12/08 09:28:41;;;;;;;32.67;19.37;;;;;;;3.61;100.00;100662.78;5116196;28;20032;-36
2023/12/08 09:31:07;;;;;;;32.07;19.90;;;;;;;3.61;100.00;100665.44;5115922;28;20024;-37
2023/12/08 09:33:32;;;;;;;34.03;20.87;;;;;;;3.64;100.00;100660.72;5115286;28;20051;-37
2023/12/08 09:35:58;;;;;;;35.23;19.83;;;;;;;3.63;100.00;100661.75;5114930;27;20027;-36
2023/12/08 09:38:23;;;;;;;33.55;18.35;;;;;;;3.75;100.00;100671.72;5115124;28;20035;-36
2023/12/08 09:40:49;;;;;;;32.33;18.07;;;;;;;3.79;100.00;100680.22;5114894;28;20023;-37
2023/12/08 09:43:18;;;;;;;31.30;19.10;;;;;;;3.83;100.00;100674.28;5115139;28;20537;-37
2023/12/08 09:45:45;;;;;;;31.27;18.35;;;;;;;3.88;100.00;100684.41;5115064;28;20023;-36
2023/12/08 09:48:11;;;;;;;37.08;18.73;;;;;;;3.94;100.00;100672.13;5115027;28;20031;-37
2023/12/08 09:50:39;;;;;;;30.58;17.27;;;;;;;3.91;100.00;100651.13;5115040;28;20051;-36
2023/12/08 09:53:05;;;;;;;35.97;18.67;;;;;;;4.04;100.00;100661.91;5114891;28;20028;-36
2023/12/08 09:55:32;;;;;;;35.60;17.27;;;;;;;4.11;100.00;100665.50;5115112;28;20024;-36
2023/12/08 09:58:00;;;;;;;44.13;19.20;;;;;;;4.16;100.00;100671.09;5115169;28;20134;-36
2023/12/08 10:00:29;;;;;;;30.83;17.55;;;;;;;4.18;100.00;100669.03;5115283;28;20032;-36
2023/12/08 10:02:55;;;;;;;38.10;19.38;;;;;;;4.26;100.00;100670.75;5114672;28;20050;-36
2023/12/08 10:05:20;;;;;;;27.90;16.35;;;;;;;4.29;100.00;100681.88;5114813;28;20063;-37
2023/12/08 10:07:48;;;;;;;37.60;17.52;;;;;;;4.34;100.00;100678.63;5114309;28;20039;-37
2023/12/08 10:10:14;;;;;;;32.08;17.38;;;;;;;4.42;100.00;100685.72;5115210;28;20028;-36
2023/12/08 10:12:40;;;;;;;31.53;17.60;;;;;;;4.47;100.00;100688.63;5114857;28;20073;-36
2023/12/08 10:15:09;;;;;;;34.40;19.20;;;;;;;4.52;100.00;100675.47;5115236;28;20096;-36
2023/12/08 10:17:44;;;;;;;34.10;18.42;;;;;;;4.54;100.00;100670.75;5114940;28;20028;-36
2023/12/08 10:20:11;;;;;;;34.30;17.73;;;;;;;4.53;100.00;100667.25;5114178;28;20067;-37
2023/12/08 10:23:02;;;;;;;41.92;18.30;;;;;;;4.65;100.00;100672.91;5114642;28;20020;-37
2023/12/08 10:25:28;;;;;;;34.55;18.23;;;;;;;4.69;100.00;100681.38;5110028;28;20035;-37
2023/12/08 10:27:57;;;;;;;37.83;17.80;;;;;;;4.72;100.00;100692.50;5114015;28;20034;-36
2023/12/08 10:30:25;;;;;;;33.92;17.23;;;;;;;4.75;100.00;100689.44;5113880;28;20032;-36
2023/12/08 10:32:51;;;;;;;33.72;17.13;;;;;;;4.79;100.00;100690.72;5113916;28;20062;-36
2023/12/08 10:35:17;;;;;;;37.53;17.38;;;;;;;4.81;100.00;100685.97;5113779;28;20102;-36
2023/12/08 10:37:43;;;;;;;37.28;16.80;;;;;;;4.78;100.00;100682.84;5114872;28;20024;-36
2023/12/08 10:40:17;;;;;;;38.47;17.65;;;;;;;4.88;100.00;100691.34;5114189;28;20023;-36
2023/12/08 10:42:44;;;;;;;39.65;17.63;;;;;;;4.86;100.00;100683.53;5114053;28;20062;-37
2023/12/08 10:45:10;;;;;;;38.63;17.63;;;;;;;4.98;100.00;100685.66;5114070;28;20455;-37
2023/12/08 10:47:42;;;;;;;35.58;17.55;;;;;;;5.01;100.00;100679.91;5114308;28;20032;-36
2023/12/08 10:50:09;;;;;;;43.40;17.45;;;;;;;4.95;100.00;100667.31;5114749;28;20050;-36
2023/12/08 10:52:37;;;;;;;38.67;19.60;;;;;;;5.13;100.00;100689.03;5113787;28;20073;-36
2023/12/08 10:55:07;;;;;;;37.47;18.05;;;;;;;5.16;100.00;100683.28;5113869;28;20084;-37
2023/12/08 10:57:36;;;;;;;40.25;19.38;;;;;;;5.16;100.00;100677.91;5114318;28;20056;-36
2023/12/08 11:00:11;;;;;;;41.53;18.45;;;;;;;5.20;100.00;100683.69;5113927;28;20054;-37
2023/12/08 11:02:39;;;;;;;42.95;19.58;;;;;;;5.23;100.00;100686.81;5112806;28;20031;-36
2023/12/08 11:05:08;;;;;;;38.53;18.50;;;;;;;5.20;100.00;100676.47;5113810;28;20020;-36